Time;durP1;ratioP1;P1;durP2;ratioP2;P2;SDS_P1;SDS_P2;PMS_P1;PMS_P2;Temp;Humidity;BMP_temperature;BMP_pressure;BME280_temperature;BME280_humidity;BME280_pressure;Samples;Min_cycle;Max_cycle;Signal;HPM_P1;HPM_P2
2022/08/12 00:43:47;;;;;;;3.97;1.80;;;;;;;;;;5139324;27;20224;-67
2022/08/12 00:46:35;;;;;;;2.20;1.67;;;;;;;;;;5139940;27;20210;-66
2022/08/12 00:49:02;;;;;;;2.58;1.67;;;;;;;;;;5139937;27;20230;-67
2022/08/12 00:54:13;;;;;;;1.60;1.50;;;;;;;;;;5138603;27;20190;-66
2022/08/12 00:56:40;;;;;;;1.98;1.88;;;;;;;;;;5139732;27;20259;-66
2022/08/12 00:59:08;;;;;;;2.45;1.67;;;;;;;;;;5139549;27;20206;-65
2022/08/12 01:01:36;;;;;;;1.90;1.70;;;;;;;;;;5139329;27;20209;-65
2022/08/12 01:12:25;;;;;;;2.42;2.00;;;;;;;;;;5138971;27;20193;-66
2022/08/12 01:14:53;;;;;;;2.00;1.90;;;;;;;;;;5138615;27;20205;-66
2022/08/12 01:17:22;;;;;;;2.00;1.90;;;;;;;;;;5137827;27;20221;-66
2022/08/12 01:19:51;;;;;;;1.63;1.52;;;;;;;;;;5137923;27;20210;-67
2022/08/12 01:22:24;;;;;;;1.90;1.80;;;;;;;;;;5137932;27;20222;-65
2022/08/12 01:24:57;;;;;;;2.30;2.10;;;;;;;;;;5138192;27;20238;-66
2022/08/12 01:27:26;;;;;;;1.98;1.88;;;;;;;;;;5137934;27;20293;-66
2022/08/12 01:29:54;;;;;;;2.13;2.00;;;;;;;;;;5138260;27;20210;-65
2022/08/12 01:32:22;;;;;;;1.98;1.88;;;;;;;;;;5119679;27;20671;-65
2022/08/12 01:34:54;;;;;;;2.13;1.90;;;;;;;;;;5117254;28;20267;-66
2022/08/12 01:37:22;;;;;;;1.83;1.73;;;;;;;;;;5117794;28;20207;-66
2022/08/12 01:39:52;;;;;;;1.88;1.70;;;;;;;;;;5117506;28;20203;-66
2022/08/12 01:42:22;;;;;;;2.15;1.95;;;;;;;;;;5117749;28;20323;-65
2022/08/12 01:44:51;;;;;;;2.55;1.85;;;;;;;;;;5117655;28;20214;-65
2022/08/12 01:47:24;;;;;;;1.80;1.70;;;;;;;;;;5117664;28;20240;-65
2022/08/12 01:49:59;;;;;;;2.17;1.98;;;;;;;;;;5117309;28;20210;-65
2022/08/12 01:52:31;;;;;;;1.80;1.70;;;;;;;;;;5117021;28;20298;-66
2022/08/12 01:54:59;;;;;;;2.50;2.00;;;;;;;;;;5117255;28;20507;-66
2022/08/12 01:57:37;;;;;;;1.98;1.75;;;;;;;;;;5129979;27;20213;-66
2022/08/12 02:00:05;;;;;;;2.35;1.63;;;;;;;;;;5138252;27;20244;-66
2022/08/12 02:02:33;;;;;;;2.13;2.03;;;;;;;;;;5138285;27;20265;-66
2022/08/12 02:13:48;;;;;;;2.00;1.90;;;;;;;;;;5137095;27;20197;-65
2022/08/12 02:16:21;;;;;;;2.55;1.95;;;;;;;;;;5137470;27;20248;-65
2022/08/12 02:18:51;;;;;;;2.30;2.10;;;;;;;;;;5137975;27;20210;-66
2022/08/12 02:21:21;;;;;;;1.95;1.80;;;;;;;;;;5137672;27;20277;-66
2022/08/12 02:23:49;;;;;;;1.95;1.83;;;;;;;;;;5133378;28;20223;-66
2022/08/12 02:26:18;;;;;;;2.33;2.00;;;;;;;;;;5115885;28;20299;-66
2022/08/12 02:28:46;;;;;;;2.22;2.13;;;;;;;;;;5116894;28;20203;-66
2022/08/12 02:31:14;;;;;;;1.85;1.75;;;;;;;;;;5117101;28;20202;-66
2022/08/12 02:33:42;;;;;;;2.20;2.00;;;;;;;;;;5115957;28;20268;-65
2022/08/12 02:36:10;;;;;;;2.95;2.00;;;;;;;;;;5116890;28;20203;-65
2022/08/12 02:38:37;;;;;;;2.38;2.17;;;;;;;;;;5116844;28;20264;-65
2022/08/12 02:41:05;;;;;;;2.40;1.98;;;;;;;;;;5117238;28;20203;-66
2022/08/12 02:43:36;;;;;;;2.35;2.15;;;;;;;;;;5116746;28;20223;-66
2022/08/12 02:46:07;;;;;;;2.28;2.08;;;;;;;;;;5116279;28;20229;-65
2022/08/12 02:48:36;;;;;;;2.63;2.20;;;;;;;;;;5116145;28;20294;-66
2022/08/12 02:51:05;;;;;;;2.33;1.83;;;;;;;;;;5115401;28;20203;-66
2022/08/12 02:53:34;;;;;;;2.08;1.88;;;;;;;;;;5096061;28;20208;-66
2022/08/12 02:56:02;;;;;;;2.03;1.92;;;;;;;;;;5095551;28;20219;-66
2022/08/12 02:58:30;;;;;;;2.42;2.17;;;;;;;;;;5095471;28;20255;-65
2022/08/12 03:01:00;;;;;;;2.47;2.28;;;;;;;;;;5095798;28;20302;-66
2022/08/12 03:03:31;;;;;;;1.90;1.80;;;;;;;;;;5099991;28;20278;-65
2022/08/12 03:05:59;;;;;;;2.20;2.00;;;;;;;;;;5099509;28;20494;-65
2022/08/12 03:08:30;;;;;;;1.83;1.73;;;;;;;;;;5100631;28;20269;-66
2022/08/12 03:11:00;;;;;;;2.00;1.90;;;;;;;;;;5100291;28;20207;-65
2022/08/12 03:13:29;;;;;;;2.30;2.17;;;;;;;;;;5100738;28;20253;-65
2022/08/12 03:15:58;;;;;;;1.90;1.80;;;;;;;;;;5100455;28;20215;-65
2022/08/12 03:18:29;;;;;;;2.20;2.00;;;;;;;;;;5100342;28;20203;-65
2022/08/12 03:20:59;;;;;;;2.55;2.20;;;;;;;;;;5100114;28;20487;-65
2022/08/12 03:23:27;;;;;;;2.20;2.10;;;;;;;;;;5100242;28;20276;-65
2022/08/12 03:25:55;;;;;;;2.72;1.90;;;;;;;;;;5107423;28;20579;-65
2022/08/12 03:31:05;;;;;;;2.08;1.98;;;;;;;;;;5090952;28;20195;-65
2022/08/12 03:33:36;;;;;;;2.00;1.90;;;;;;;;;;5128826;27;20313;-65
2022/08/12 03:36:06;;;;;;;1.90;1.80;;;;;;;;;;5140751;27;20604;-66
2022/08/12 03:38:36;;;;;;;2.20;2.00;;;;;;;;;;5140926;27;20305;-65
2022/08/12 04:00:28;;;;;;;2.50;2.30;;;;;;;;;;5119344;28;20194;-65
2022/08/12 04:03:00;;;;;;;2.53;2.33;;;;;;;;;;5118967;28;20231;-65
2022/08/12 04:05:28;;;;;;;2.47;2.30;;;;;;;;;;5119336;28;20298;-65
2022/08/12 04:07:57;;;;;;;2.08;1.98;;;;;;;;;;5119834;28;20203;-65
2022/08/12 04:13:14;;;;;;;2.50;2.30;;;;;;;;;;5119579;28;20207;-65
2022/08/12 04:13:18;;;;;;;2.10;2.00;;;;;;;;;;5119753;28;20199;-65
2022/08/12 04:15:46;;;;;;;2.40;2.20;;;;;;;;;;5132865;27;20322;-65
2022/08/12 04:18:14;;;;;;;2.45;2.28;;;;;;;;;;5139534;27;20210;-65
2022/08/12 04:20:42;;;;;;;2.20;2.00;;;;;;;;;;5139431;27;20209;-65
2022/08/12 04:23:12;;;;;;;2.33;2.13;;;;;;;;;;5140150;27;20222;-65
2022/08/12 04:25:40;;;;;;;3.03;2.38;;;;;;;;;;5139475;27;20668;-65
2022/08/12 04:28:07;;;;;;;2.40;2.20;;;;;;;;;;5139717;27;20217;-65
2022/08/12 04:30:35;;;;;;;2.38;2.28;;;;;;;;;;5138992;27;20213;-65
2022/08/12 04:33:03;;;;;;;2.58;2.38;;;;;;;;;;5138770;27;20209;-65
2022/08/12 04:35:30;;;;;;;2.30;2.20;;;;;;;;;;5139231;27;20202;-66
2022/08/12 04:37:59;;;;;;;2.70;2.28;;;;;;;;;;5139332;27;20650;-65
2022/08/12 04:40:29;;;;;;;2.22;2.13;;;;;;;;;;5139263;27;20210;-65
2022/08/12 04:42:56;;;;;;;3.42;2.10;;;;;;;;;;5138277;27;20234;-65
2022/08/12 04:45:23;;;;;;;2.42;2.13;;;;;;;;;;5138957;27;20631;-65
2022/08/12 04:47:51;;;;;;;2.40;2.20;;;;;;;;;;5139178;27;20202;-65
2022/08/12 04:50:20;;;;;;;3.42;2.42;;;;;;;;;;5139110;27;20270;-65
2022/08/12 04:52:48;;;;;;;2.30;2.10;;;;;;;;;;5139280;27;20312;-65
2022/08/12 04:55:16;;;;;;;2.50;2.30;;;;;;;;;;5138793;27;20209;-65
2022/08/12 04:57:45;;;;;;;2.35;2.15;;;;;;;;;;5138738;27;20468;-65
2022/08/12 05:00:15;;;;;;;3.05;2.28;;;;;;;;;;5138765;27;20460;-65
2022/08/12 05:02:42;;;;;;;2.40;2.30;;;;;;;;;;5138855;27;20209;-65
2022/08/12 05:05:17;;;;;;;2.40;2.20;;;;;;;;;;5138847;27;20278;-65
2022/08/12 05:07:46;;;;;;;2.58;2.25;;;;;;;;;;5138057;27;20271;-65
2022/08/12 05:10:14;;;;;;;2.42;2.20;;;;;;;;;;5136825;27;20197;-65
2022/08/12 05:12:43;;;;;;;2.28;2.17;;;;;;;;;;5138427;27;20210;-65
2022/08/12 05:15:13;;;;;;;2.33;2.13;;;;;;;;;;5137738;27;20199;-66
2022/08/12 05:17:41;;;;;;;2.17;2.08;;;;;;;;;;5138360;27;20199;-65
2022/08/12 05:20:10;;;;;;;2.50;2.28;;;;;;;;;;5138028;27;20210;-65
2022/08/12 05:22:37;;;;;;;2.25;2.15;;;;;;;;;;5138042;27;20485;-65
2022/08/12 05:25:06;;;;;;;2.15;2.05;;;;;;;;;;5137209;27;20291;-65
2022/08/12 05:27:33;;;;;;;2.60;2.40;;;;;;;;;;5137994;27;20666;-65
2022/08/12 05:30:00;;;;;;;2.47;2.28;;;;;;;;;;5137809;27;20285;-65
2022/08/12 05:32:29;;;;;;;2.60;2.33;;;;;;;;;;5137606;27;20198;-65
2022/08/12 05:34:57;;;;;;;2.50;2.40;;;;;;;;;;5137776;27;20278;-65
2022/08/12 05:37:24;;;;;;;2.83;2.63;;;;;;;;;;5137233;27;20202;-65
2022/08/12 05:39:51;;;;;;;2.50;2.30;;;;;;;;;;5137825;27;20210;-65
2022/08/12 05:42:18;;;;;;;2.60;2.40;;;;;;;;;;5137275;27;20210;-66
2022/08/12 05:44:46;;;;;;;2.65;2.45;;;;;;;;;;5137603;27;20703;-65
2022/08/12 05:47:13;;;;;;;2.75;2.38;;;;;;;;;;5137554;27;20639;-65
2022/08/12 05:49:42;;;;;;;2.53;2.33;;;;;;;;;;5137718;27;20214;-65
2022/08/12 05:52:10;;;;;;;2.53;2.33;;;;;;;;;;5137439;27;20247;-65
2022/08/12 05:54:43;;;;;;;2.67;2.47;;;;;;;;;;5137040;27;20258;-65
2022/08/12 05:57:11;;;;;;;2.40;2.30;;;;;;;;;;5137544;27;20198;-65
2022/08/12 05:59:40;;;;;;;2.55;2.35;;;;;;;;;;5137645;27;20292;-65
2022/08/12 06:02:10;;;;;;;2.72;2.53;;;;;;;;;;5136493;27;20271;-65
2022/08/12 06:04:40;;;;;;;2.78;2.58;;;;;;;;;;5135154;27;20231;-65
2022/08/12 06:07:11;;;;;;;4.90;2.50;;;;;;;;;;5137591;27;20198;-65
2022/08/12 06:09:38;;;;;;;2.58;2.38;;;;;;;;;;5137247;27;20202;-65
2022/08/12 06:12:06;;;;;;;2.60;2.40;;;;;;;;;;5137098;27;20665;-65
2022/08/12 06:14:35;;;;;;;2.70;2.50;;;;;;;;;;5136671;27;20206;-65
2022/08/12 06:17:03;;;;;;;2.80;2.60;;;;;;;;;;5136043;27;20190;-65
2022/08/12 06:19:31;;;;;;;2.75;2.53;;;;;;;;;;5136543;27;20330;-65
2022/08/12 06:21:58;;;;;;;2.70;2.45;;;;;;;;;;5136433;27;20202;-65
2022/08/12 06:24:28;;;;;;;2.75;2.55;;;;;;;;;;5136409;27;20622;-65
2022/08/12 06:26:58;;;;;;;3.08;2.88;;;;;;;;;;5136875;28;20213;-65
2022/08/12 06:29:26;;;;;;;5.57;3.05;;;;;;;;;;5136518;27;20213;-65
2022/08/12 06:31:53;;;;;;;3.85;2.70;;;;;;;;;;5135839;27;20205;-65
2022/08/12 06:34:20;;;;;;;3.53;2.90;;;;;;;;;;5136541;28;20262;-65
2022/08/12 06:36:48;;;;;;;3.67;2.75;;;;;;;;;;5137069;27;20582;-65
2022/08/12 06:39:15;;;;;;;2.83;2.42;;;;;;;;;;5140143;27;20266;-65
2022/08/12 06:44:31;;;;;;;4.55;2.92;;;;;;;;;;5140625;27;20221;-65
2022/08/12 06:46:58;;;;;;;3.58;2.90;;;;;;;;;;5140095;27;20566;-65
2022/08/12 06:49:27;;;;;;;2.97;2.78;;;;;;;;;;5139801;27;20570;-65
2022/08/12 06:51:54;;;;;;;4.10;2.90;;;;;;;;;;5140486;27;20201;-65
2022/08/12 06:54:23;;;;;;;3.08;2.83;;;;;;;;;;5140186;27;20233;-65
2022/08/12 06:56:54;;;;;;;3.20;3.00;;;;;;;;;;5140518;27;20566;-65
2022/08/12 06:59:21;;;;;;;3.72;2.80;;;;;;;;;;5139258;27;20204;-65
2022/08/12 07:01:49;;;;;;;3.25;2.95;;;;;;;;;;5139849;27;20233;-65
2022/08/12 07:04:16;;;;;;;2.78;2.58;;;;;;;;;;5139612;27;20229;-65
2022/08/12 07:06:44;;;;;;;2.72;2.53;;;;;;;;;;5139460;27;20583;-65
2022/08/12 07:09:13;;;;;;;3.00;2.80;;;;;;;;;;5138939;27;20234;-65
2022/08/12 07:11:42;;;;;;;3.20;2.70;;;;;;;;;;5138920;27;20203;-65
2022/08/12 07:14:10;;;;;;;2.60;2.40;;;;;;;;;;5139974;27;20312;-65
2022/08/12 07:16:55;;;;;;;2.80;2.60;;;;;;;;;;5138856;27;20655;-65
2022/08/12 07:19:23;;;;;;;2.97;2.75;;;;;;;;;;5138688;27;20301;-65
2022/08/12 07:21:51;;;;;;;2.88;2.60;;;;;;;;;;5139119;27;20216;-65
2022/08/12 07:24:19;;;;;;;2.60;2.40;;;;;;;;;;5139194;27;20247;-65
2022/08/12 07:26:46;;;;;;;3.03;2.60;;;;;;;;;;5139293;27;20206;-66
2022/08/12 07:29:15;;;;;;;2.92;2.72;;;;;;;;;;5138897;27;20617;-65
2022/08/12 07:31:42;;;;;;;2.70;2.50;;;;;;;;;;5139412;27;20551;-65
2022/08/12 07:34:09;;;;;;;2.63;2.38;;;;;;;;;;5138084;27;20255;-65
2022/08/12 07:36:38;;;;;;;2.78;2.58;;;;;;;;;;5138633;27;20203;-65
2022/08/12 07:39:06;;;;;;;2.80;2.60;;;;;;;;;;5138491;27;20202;-65
2022/08/12 07:41:33;;;;;;;2.55;2.35;;;;;;;;;;5137305;27;20226;-65
2022/08/12 07:44:02;;;;;;;3.03;2.70;;;;;;;;;;5138681;27;20365;-65
2022/08/12 07:46:33;;;;;;;3.03;2.80;;;;;;;;;;5137502;27;20217;-65
2022/08/12 07:49:01;;;;;;;2.40;2.20;;;;;;;;;;5138053;27;20201;-65
2022/08/12 07:51:29;;;;;;;2.90;2.60;;;;;;;;;;5138825;27;20202;-65
2022/08/12 07:53:59;;;;;;;2.70;2.50;;;;;;;;;;5136719;27;20202;-65
2022/08/12 07:56:27;;;;;;;2.63;2.42;;;;;;;;;;5138258;27;20498;-65
2022/08/12 07:58:57;;;;;;;2.35;2.15;;;;;;;;;;5137499;27;20324;-65
2022/08/12 08:01:25;;;;;;;2.30;2.10;;;;;;;;;;5137591;27;20234;-65
2022/08/12 08:06:41;;;;;;;2.53;2.20;;;;;;;;;;5138171;27;20205;-65
2022/08/12 08:09:10;;;;;;;2.50;2.30;;;;;;;;;;5138087;27;20210;-65
2022/08/12 08:14:27;;;;;;;2.42;2.08;;;;;;;;;;5137194;27;20480;-65
2022/08/12 08:16:55;;;;;;;2.17;1.98;;;;;;;;;;5137077;27;20229;-65
2022/08/12 08:19:24;;;;;;;2.42;2.22;;;;;;;;;;5136708;27;20217;-65
2022/08/12 08:21:52;;;;;;;2.65;2.15;;;;;;;;;;5137894;27;20231;-65
2022/08/12 08:24:19;;;;;;;2.20;2.00;;;;;;;;;;5137009;27;20286;-65
2022/08/12 08:26:47;;;;;;;2.05;1.83;;;;;;;;;;5116631;28;20279;-65
2022/08/12 08:29:15;;;;;;;2.20;1.90;;;;;;;;;;5116374;28;20557;-65
2022/08/12 08:31:45;;;;;;;1.70;1.60;;;;;;;;;;5116662;28;20214;-65
2022/08/12 08:34:12;;;;;;;3.17;1.77;;;;;;;;;;5116095;28;20724;-65
2022/08/12 08:36:42;;;;;;;1.90;1.80;;;;;;;;;;5116792;28;20207;-65
2022/08/12 08:39:10;;;;;;;2.30;1.80;;;;;;;;;;5117054;28;20199;-65
2022/08/12 08:44:22;;;;;;;1.73;1.63;;;;;;;;;;5115700;28;20229;-65
2022/08/12 08:46:50;;;;;;;2.80;1.58;;;;;;;;;;5116498;28;20203;-65
2022/08/12 08:49:18;;;;;;;1.77;1.67;;;;;;;;;;5115420;28;20203;-65
2022/08/12 08:51:47;;;;;;;2.13;1.70;;;;;;;;;;5115575;28;20696;-65
2022/08/12 08:54:15;;;;;;;2.30;1.50;;;;;;;;;;5115772;28;20199;-65
2022/08/12 08:56:42;;;;;;;1.88;1.58;;;;;;;;;;5116334;28;20260;-65
2022/08/12 08:59:11;;;;;;;1.50;1.40;;;;;;;;;;5115314;28;20198;-65
2022/08/12 09:01:38;;;;;;;1.52;1.42;;;;;;;;;;5116633;28;20195;-65
2022/08/12 09:04:06;;;;;;;1.70;1.60;;;;;;;;;;5115882;28;20332;-65
2022/08/12 09:06:33;;;;;;;1.55;1.45;;;;;;;;;;5116356;28;20210;-65
2022/08/12 09:09:04;;;;;;;1.75;1.38;;;;;;;;;;5115479;28;20229;-65
2022/08/12 09:14:16;;;;;;;1.45;1.35;;;;;;;;;;5115403;28;20205;-66
2022/08/12 09:16:43;;;;;;;1.58;1.40;;;;;;;;;;5115064;28;20203;-65
2022/08/12 09:19:13;;;;;;;1.95;1.42;;;;;;;;;;5115543;28;20676;-65
2022/08/12 09:21:40;;;;;;;1.50;1.30;;;;;;;;;;5114978;28;20210;-65
2022/08/12 09:24:09;;;;;;;1.50;1.23;;;;;;;;;;5115486;28;20267;-65
2022/08/12 09:26:37;;;;;;;1.50;1.40;;;;;;;;;;5133466;27;20500;-65
2022/08/12 09:29:05;;;;;;;1.63;1.20;;;;;;;;;;5135441;27;20217;-65
2022/08/12 09:31:33;;;;;;;1.20;1.10;;;;;;;;;;5135945;27;20316;-65
2022/08/12 09:34:00;;;;;;;2.38;1.40;;;;;;;;;;5135677;27;20198;-65
2022/08/12 09:36:27;;;;;;;1.98;1.20;;;;;;;;;;5135878;27;20198;-65
2022/08/12 09:38:56;;;;;;;1.70;1.10;;;;;;;;;;5135763;27;20247;-65
2022/08/12 09:41:25;;;;;;;1.27;1.17;;;;;;;;;;5135810;27;20243;-65
2022/08/12 09:46:40;;;;;;;1.20;1.10;;;;;;;;;;5134628;27;20220;-65
2022/08/12 09:49:08;;;;;;;1.40;1.30;;;;;;;;;;5135058;27;20213;-65
2022/08/12 09:51:35;;;;;;;1.20;1.10;;;;;;;;;;5134634;27;20206;-66
2022/08/12 09:54:03;;;;;;;1.30;1.20;;;;;;;;;;5134907;27;20202;-65
2022/08/12 09:56:32;;;;;;;1.80;1.20;;;;;;;;;;5135151;27;20202;-65
2022/08/12 09:58:59;;;;;;;1.30;1.20;;;;;;;;;;5134721;27;20198;-65
2022/08/12 10:01:27;;;;;;;1.23;1.13;;;;;;;;;;5134938;27;20266;-65
2022/08/12 10:03:54;;;;;;;1.08;0.98;;;;;;;;;;5134233;27;20198;-65
2022/08/12 10:06:26;;;;;;;1.30;1.20;;;;;;;;;;5134932;27;20217;-65
2022/08/12 10:08:54;;;;;;;1.35;1.20;;;;;;;;;;5134380;27;20202;-65
2022/08/12 10:14:20;;;;;;;1.20;1.10;;;;;;;;;;5051533;28;20199;-65
2022/08/12 10:16:48;;;;;;;1.20;1.10;;;;;;;;;;5099757;28;20210;-65
2022/08/12 10:19:17;;;;;;;2.35;1.17;;;;;;;;;;5114815;28;20203;-65
2022/08/12 10:21:46;;;;;;;1.10;1.10;;;;;;;;;;5114081;28;20199;-65
2022/08/12 10:24:14;;;;;;;1.00;1.00;;;;;;;;;;5114167;28;20195;-65
2022/08/12 10:29:38;;;;;;;1.80;1.20;;;;;;;;;;5114244;28;20247;-65
2022/08/12 10:32:06;;;;;;;1.10;1.00;;;;;;;;;;5114366;28;20574;-66
2022/08/12 10:34:33;;;;;;;0.95;0.95;;;;;;;;;;5114794;28;20203;-65
2022/08/12 10:37:02;;;;;;;1.15;0.95;;;;;;;;;;5113805;28;20199;-65
2022/08/12 10:39:31;;;;;;;1.10;1.00;;;;;;;;;;5113753;28;20194;-65
2022/08/12 10:44:45;;;;;;;1.13;1.08;;;;;;;;;;5114183;28;20321;-65
2022/08/12 10:47:15;;;;;;;0.90;0.90;;;;;;;;;;5114326;28;20590;-65
2022/08/12 10:49:43;;;;;;;1.30;0.90;;;;;;;;;;5114468;28;20203;-65
2022/08/12 10:52:11;;;;;;;0.93;0.93;;;;;;;;;;5112875;28;20206;-65
2022/08/12 10:54:38;;;;;;;0.80;0.80;;;;;;;;;;5113252;28;20207;-65
2022/08/12 10:57:06;;;;;;;1.00;1.00;;;;;;;;;;5114246;28;20203;-65
2022/08/12 10:59:33;;;;;;;1.20;1.10;;;;;;;;;;5114057;28;20237;-66
2022/08/12 11:02:02;;;;;;;1.88;1.00;;;;;;;;;;5113653;28;20203;-65
2022/08/12 11:04:30;;;;;;;2.22;1.00;;;;;;;;;;5112661;28;20203;-65
2022/08/12 11:06:58;;;;;;;4.43;1.40;;;;;;;;;;5114036;28;20591;-65
2022/08/12 11:09:30;;;;;;;2.40;1.00;;;;;;;;;;5112963;28;20203;-65
2022/08/12 11:11:58;;;;;;;2.50;1.05;;;;;;;;;;5113316;28;20230;-65
2022/08/12 11:14:30;;;;;;;1.00;1.00;;;;;;;;;;5114187;28;20209;-65
2022/08/12 11:16:57;;;;;;;1.27;1.17;;;;;;;;;;5113536;28;20307;-65
2022/08/12 11:19:26;;;;;;;1.73;1.20;;;;;;;;;;5113944;28;20203;-65
2022/08/12 11:21:54;;;;;;;1.85;0.95;;;;;;;;;;5113695;28;20206;-65
2022/08/12 11:24:21;;;;;;;2.20;1.10;;;;;;;;;;5116892;28;20272;-65
2022/08/12 11:26:49;;;;;;;0.82;0.82;;;;;;;;;;5117230;28;20689;-65
2022/08/12 11:29:16;;;;;;;0.90;0.90;;;;;;;;;;5117112;28;20313;-65
2022/08/12 11:31:44;;;;;;;1.73;1.00;;;;;;;;;;5116441;28;20492;-65
2022/08/12 11:34:11;;;;;;;2.15;0.90;;;;;;;;;;5117003;28;20511;-65
2022/08/12 11:36:40;;;;;;;1.02;0.85;;;;;;;;;;5117292;28;20590;-65
2022/08/12 11:39:08;;;;;;;1.25;1.10;;;;;;;;;;5118483;28;20202;-65
2022/08/12 11:41:38;;;;;;;0.90;0.90;;;;;;;;;;5118215;28;20263;-65
2022/08/12 11:44:05;;;;;;;1.20;1.00;;;;;;;;;;5116984;28;20203;-65
2022/08/12 11:46:35;;;;;;;1.00;0.90;;;;;;;;;;5117324;28;20277;-65
2022/08/12 11:49:03;;;;;;;0.90;0.90;;;;;;;;;;5117882;28;20683;-68
2022/08/12 11:51:30;;;;;;;1.15;1.00;;;;;;;;;;5108360;28;20617;-65
2022/08/12 11:53:59;;;;;;;1.25;1.10;;;;;;;;;;5116729;28;20218;-65
2022/08/12 11:56:26;;;;;;;1.40;0.88;;;;;;;;;;5116821;28;20191;-65
2022/08/12 11:58:54;;;;;;;1.13;0.95;;;;;;;;;;5116618;28;20259;-65
2022/08/12 12:01:22;;;;;;;1.45;0.90;;;;;;;;;;5116772;28;20199;-65
2022/08/12 12:03:49;;;;;;;1.00;1.00;;;;;;;;;;5116243;28;20591;-66
2022/08/12 12:06:19;;;;;;;1.00;1.00;;;;;;;;;;5116948;28;20238;-65
2022/08/12 12:08:47;;;;;;;1.02;1.00;;;;;;;;;;5116639;28;20305;-66
2022/08/12 12:11:15;;;;;;;1.20;0.90;;;;;;;;;;5115809;28;20203;-65
2022/08/12 12:13:43;;;;;;;1.10;1.00;;;;;;;;;;5116916;28;20203;-65
2022/08/12 12:16:10;;;;;;;0.93;0.93;;;;;;;;;;5116579;28;20206;-65
2022/08/12 12:18:38;;;;;;;1.30;1.00;;;;;;;;;;5116880;28;20267;-65
2022/08/12 12:21:06;;;;;;;1.75;1.20;;;;;;;;;;5116574;28;20223;-65
2022/08/12 12:23:34;;;;;;;1.23;1.08;;;;;;;;;;5116824;28;20203;-65
2022/08/12 12:26:02;;;;;;;1.20;1.10;;;;;;;;;;5129612;27;20716;-65
2022/08/12 12:28:30;;;;;;;1.20;1.10;;;;;;;;;;5136151;27;20258;-65
2022/08/12 12:30:58;;;;;;;1.10;1.00;;;;;;;;;;5136963;27;20286;-66
2022/08/12 12:33:25;;;;;;;1.40;1.30;;;;;;;;;;5136632;27;20198;-65
2022/08/12 12:35:52;;;;;;;1.20;1.20;;;;;;;;;;5136353;27;20651;-65
2022/08/12 12:38:20;;;;;;;1.88;1.13;;;;;;;;;;5135961;27;20210;-65
2022/08/12 12:40:48;;;;;;;1.23;1.20;;;;;;;;;;5135871;27;20202;-65
2022/08/12 12:43:16;;;;;;;1.02;1.02;;;;;;;;;;5135897;27;20278;-65
2022/08/12 12:45:45;;;;;;;1.25;1.10;;;;;;;;;;5135805;27;20222;-66
2022/08/12 12:48:13;;;;;;;1.17;1.13;;;;;;;;;;5135781;27;20205;-65
2022/08/12 12:50:42;;;;;;;2.45;1.40;;;;;;;;;;5136055;27;20308;-65
2022/08/12 12:53:11;;;;;;;1.38;1.27;;;;;;;;;;5136523;27;20194;-65
2022/08/12 12:55:40;;;;;;;1.92;1.20;;;;;;;;;;5127035;27;20301;-65
2022/08/12 12:58:09;;;;;;;1.20;1.10;;;;;;;;;;5133035;27;20568;-65
2022/08/12 13:00:40;;;;;;;1.10;1.10;;;;;;;;;;5135498;27;20237;-65
2022/08/12 13:03:08;;;;;;;1.23;1.13;;;;;;;;;;5136193;27;20287;-65
2022/08/12 13:05:37;;;;;;;2.15;1.42;;;;;;;;;;5136068;27;20233;-65
2022/08/12 13:08:23;;;;;;;1.33;1.23;;;;;;;;;;5136532;27;20194;-65
2022/08/12 13:10:51;;;;;;;1.40;1.30;;;;;;;;;;5136319;27;20578;-65
2022/08/12 13:13:18;;;;;;;1.23;1.13;;;;;;;;;;5136449;27;20198;-66
2022/08/12 13:15:47;;;;;;;1.17;1.17;;;;;;;;;;5136184;27;20204;-65
2022/08/12 13:18:16;;;;;;;1.40;1.30;;;;;;;;;;5135352;27;20702;-65
2022/08/12 13:20:44;;;;;;;1.50;1.40;;;;;;;;;;5135771;27;20255;-65
2022/08/12 13:23:11;;;;;;;1.40;1.30;;;;;;;;;;5135696;27;20331;-65
2022/08/12 13:25:40;;;;;;;1.60;1.30;;;;;;;;;;5136523;27;20613;-65
2022/08/12 13:28:08;;;;;;;1.30;1.20;;;;;;;;;;5135415;27;20317;-65
2022/08/12 13:30:36;;;;;;;1.85;1.20;;;;;;;;;;5136561;27;20716;-65
2022/08/12 13:33:04;;;;;;;1.38;1.27;;;;;;;;;;5136534;27;20581;-65
2022/08/12 13:35:34;;;;;;;1.42;1.33;;;;;;;;;;5135602;27;20208;-66
2022/08/12 13:38:03;;;;;;;2.30;1.45;;;;;;;;;;5135649;27;20267;-66
2022/08/12 13:40:31;;;;;;;2.25;1.50;;;;;;;;;;5135746;27;20279;-65
2022/08/12 13:43:00;;;;;;;1.48;1.38;;;;;;;;;;5135654;27;20338;-66
2022/08/12 13:45:28;;;;;;;1.30;1.20;;;;;;;;;;5129221;27;20202;-65
2022/08/12 13:47:57;;;;;;;1.50;1.40;;;;;;;;;;5134237;27;20202;-65
2022/08/12 13:50:31;;;;;;;1.90;1.50;;;;;;;;;;5135098;27;20202;-65
2022/08/12 13:53:01;;;;;;;2.05;1.60;;;;;;;;;;5135560;27;20497;-65
2022/08/12 13:55:28;;;;;;;1.48;1.38;;;;;;;;;;5133763;27;20202;-66
2022/08/12 13:57:56;;;;;;;1.45;1.35;;;;;;;;;;5134174;27;20640;-65
2022/08/12 14:00:24;;;;;;;1.55;1.42;;;;;;;;;;5135004;27;20202;-65
2022/08/12 14:02:52;;;;;;;1.33;1.23;;;;;;;;;;5134648;27;20575;-65
2022/08/12 14:05:20;;;;;;;1.30;1.30;;;;;;;;;;5133819;27;20194;-65
2022/08/12 14:07:54;;;;;;;1.30;1.20;;;;;;;;;;5134479;27;20218;-66
2022/08/12 14:10:39;;;;;;;1.65;1.52;;;;;;;;;;5134957;27;20661;-65
2022/08/12 14:13:11;;;;;;;1.40;1.30;;;;;;;;;;5134692;27;20789;-65
2022/08/12 14:15:39;;;;;;;1.45;1.35;;;;;;;;;;5135280;27;20525;-65
2022/08/12 14:18:08;;;;;;;1.40;1.30;;;;;;;;;;5133987;27;20199;-66
2022/08/12 14:20:35;;;;;;;1.33;1.23;;;;;;;;;;5133447;27;20199;-65
2022/08/12 14:23:03;;;;;;;1.60;1.50;;;;;;;;;;5135091;27;20210;-65
2022/08/12 14:25:32;;;;;;;1.50;1.40;;;;;;;;;;5134521;27;20242;-65
2022/08/12 14:28:11;;;;;;;1.42;1.33;;;;;;;;;;5134228;28;20251;-66
2022/08/12 14:30:45;;;;;;;2.17;1.75;;;;;;;;;;5134830;28;20266;-66
2022/08/12 14:33:15;;;;;;;1.40;1.30;;;;;;;;;;5134018;28;20673;-65
2022/08/12 14:35:42;;;;;;;1.40;1.30;;;;;;;;;;5134897;28;20305;-65
2022/08/12 14:38:14;;;;;;;2.25;1.48;;;;;;;;;;5134631;28;20202;-66
2022/08/12 14:40:43;;;;;;;1.65;1.52;;;;;;;;;;5135235;28;20202;-65
2022/08/12 14:43:12;;;;;;;2.53;1.52;;;;;;;;;;5134271;28;20590;-65
2022/08/12 14:45:41;;;;;;;1.52;1.42;;;;;;;;;;5134198;28;20250;-65
2022/08/12 14:48:08;;;;;;;1.60;1.38;;;;;;;;;;5119122;28;20203;-66
2022/08/12 14:50:36;;;;;;;1.40;1.30;;;;;;;;;;5114072;28;20202;-66
2022/08/12 14:53:03;;;;;;;1.30;1.30;;;;;;;;;;5113777;28;20281;-65
2022/08/12 14:55:32;;;;;;;1.95;1.30;;;;;;;;;;5113916;28;20692;-66
2022/08/12 14:58:01;;;;;;;1.60;1.50;;;;;;;;;;5115347;28;20279;-65
2022/08/12 15:03:15;;;;;;;1.48;1.38;;;;;;;;;;5117039;28;20190;-66
2022/08/12 15:05:43;;;;;;;1.73;1.63;;;;;;;;;;5118116;28;20256;-65
2022/08/12 15:08:12;;;;;;;1.38;1.30;;;;;;;;;;5117947;28;20251;-65
2022/08/12 15:10:39;;;;;;;1.90;1.50;;;;;;;;;;5117052;28;20206;-65
2022/08/12 15:13:09;;;;;;;2.15;1.33;;;;;;;;;;5117679;28;20305;-66
2022/08/12 15:15:40;;;;;;;1.77;1.60;;;;;;;;;;5132456;27;20194;-65
2022/08/12 15:18:07;;;;;;;1.42;1.33;;;;;;;;;;5137704;27;20198;-65
2022/08/12 15:20:35;;;;;;;1.65;1.55;;;;;;;;;;5137316;27;20202;-65
2022/08/12 15:23:02;;;;;;;1.60;1.50;;;;;;;;;;5137332;27;20205;-66
2022/08/12 15:25:30;;;;;;;1.70;1.60;;;;;;;;;;5138114;27;20234;-66
2022/08/12 15:27:58;;;;;;;1.77;1.67;;;;;;;;;;5137476;27;20223;-65
2022/08/12 15:30:28;;;;;;;1.73;1.50;;;;;;;;;;5137848;27;20198;-66
2022/08/12 15:32:56;;;;;;;1.70;1.60;;;;;;;;;;5137208;27;20202;-66
2022/08/12 15:35:26;;;;;;;1.60;1.50;;;;;;;;;;5137679;27;20320;-66
2022/08/12 15:38:00;;;;;;;1.75;1.65;;;;;;;;;;5137561;27;20214;-66
2022/08/12 15:40:28;;;;;;;2.17;1.52;;;;;;;;;;5137968;27;20570;-65
2022/08/12 15:42:56;;;;;;;1.55;1.45;;;;;;;;;;5121573;27;20206;-66
2022/08/12 15:45:23;;;;;;;1.85;1.70;;;;;;;;;;5117903;28;20203;-66
2022/08/12 15:47:52;;;;;;;1.73;1.63;;;;;;;;;;5117694;28;20315;-66
2022/08/12 15:50:20;;;;;;;1.73;1.63;;;;;;;;;;5117310;28;20210;-66
2022/08/12 15:52:47;;;;;;;1.63;1.52;;;;;;;;;;5116418;28;20199;-66
2022/08/12 15:55:15;;;;;;;1.80;1.70;;;;;;;;;;5117213;28;20698;-66
2022/08/12 15:57:47;;;;;;;1.42;1.38;;;;;;;;;;5117455;28;20202;-65
2022/08/12 16:00:15;;;;;;;1.60;1.50;;;;;;;;;;5116676;28;20221;-66
2022/08/12 16:02:43;;;;;;;1.85;1.60;;;;;;;;;;5117497;28;20210;-65
2022/08/12 16:05:12;;;;;;;2.17;1.80;;;;;;;;;;5116461;28;20203;-66
2022/08/12 16:07:41;;;;;;;1.90;1.80;;;;;;;;;;5116911;28;20230;-65
2022/08/12 16:10:09;;;;;;;1.50;1.40;;;;;;;;;;5128121;27;20204;-65
2022/08/12 16:12:40;;;;;;;1.58;1.48;;;;;;;;;;5136659;27;20279;-65
2022/08/12 16:15:08;;;;;;;1.80;1.70;;;;;;;;;;5137661;27;20206;-66
2022/08/12 16:17:37;;;;;;;1.70;1.60;;;;;;;;;;5119748;27;20203;-65
2022/08/12 16:20:07;;;;;;;1.80;1.70;;;;;;;;;;5116707;28;20207;-65
2022/08/12 16:22:36;;;;;;;1.55;1.40;;;;;;;;;;5115965;28;20210;-66
2022/08/12 16:25:05;;;;;;;1.70;1.60;;;;;;;;;;5115731;28;20233;-66
2022/08/12 16:27:33;;;;;;;1.80;1.65;;;;;;;;;;5137114;27;20222;-66
2022/08/12 16:30:03;;;;;;;1.88;1.70;;;;;;;;;;5137843;27;20623;-66
2022/08/12 16:32:35;;;;;;;1.85;1.60;;;;;;;;;;5137030;27;20233;-65
2022/08/12 16:35:05;;;;;;;1.75;1.58;;;;;;;;;;5136797;27;20230;-66
2022/08/12 16:37:33;;;;;;;2.42;1.73;;;;;;;;;;5136196;27;20194;-66
2022/08/12 16:40:02;;;;;;;1.83;1.50;;;;;;;;;;5136759;27;20224;-66
2022/08/12 16:42:29;;;;;;;2.65;1.90;;;;;;;;;;5136166;27;20206;-66
2022/08/12 16:44:59;;;;;;;1.77;1.67;;;;;;;;;;5136536;27;20210;-66